Aura, New Jersey
Current Conditions -  °F | °C
As of 8:54 AM on Sunday 25 Jan 2015 (Local Time) from KPHL Reporting Station
Broken Clouds Broken Clouds  
Wind Chill: 29°   Ceiling: 6000
Heat Index: 38°   Visibility: 10mi
Dew Point: 29°   Wind: 17mph
Humidity: 70%   Direction: 240°WSW
Pressure: 29.8"   Gusts: NA
Location:  39.6996°N, 75.1187°W
Report Text: KPHL 251354Z 24015KT 10SM BKN060 BKN260 03/M02 A2980 RMK AO2 SLP089 T00331017
Loading
Personal Weather Stations






























Interactive Weather Map New forecast layout! Learn more

10-Day Weather Forecast

Advertisements
Track Severe Weather on mobile